Route Details

Aircraft Information
Group: North America Fleet
Types: B738, B752, B762, B763
Route Data
Distance: 543nm
Duration: 1h 55m
Origin METAR: KBNA 010614Z 33009KT 5SM -FZRA BR BKN009 OVC014 M01/M03 A3033 RMK AO2 FZRAB13 P0000 I1000 T10111028 $
Dest. METAR: KLAL 010615Z AUTO 00000KT 10SM SCT055 17/16 A3018 RMK AO2 T01650158
Freight Data
(for Feb 1, 2023)
Load Factor:
81%
Manifested Cargo: 80,819lbs
Financial History
Total Freight: 64,323lbs
Average Load: 0lbs/flt
Fuel Used: 9,667lbs
Avg. Fuel Used: 0lbs/flt
Fuel Expense: $5,220
Avg. Fuel Expense: $0
Avg. Fuel Cost: $0/lbs
Total Gross Income: $164,024
Pilot Pay: $269
Total Expenses: $31,889
Total Revenue: $126,283
Average Revenue: $0

Capitol Logistics 493




KBNA
Nashville International Airport
Nashville, Tennessee
KLAL
Lakeland Linder Regional Airport
Lakeland, Florida

Activity Log

Date Flight Route Aircraft Duration
12/30/2022 CPX493 EVVAN3 EVVAN DCT THRSR DCT KYYUU LUBBR3 B763 1h 43m